createdAt,value
2023-03-23T00:00:02.268Z,55.426417602262724
2023-03-23T00:15:01.963Z,55.66030130289049
2023-03-23T00:30:01.846Z,55.86209823342411
2023-03-23T00:45:01.576Z,56.33144375033961
2023-03-23T01:00:05.509Z,55.79114745586212
2023-03-23T01:15:01.885Z,55.615041941186874
2023-03-23T01:30:01.601Z,55.57171070540986
2023-03-23T01:45:01.385Z,54.94371393242274
2023-03-23T02:00:02.063Z,54.70850550636288
2023-03-23T02:15:01.734Z,54.893400375637896
2023-03-23T02:30:01.429Z,54.006277626734956
2023-03-23T02:45:02.092Z,54.058216812260056
2023-03-23T03:00:01.920Z,53.742529518753834
2023-03-23T03:15:01.614Z,53.838198605658235
2023-03-23T03:30:02.106Z,53.948930016725264
2023-03-23T03:45:01.785Z,53.53312219762424
2023-03-23T04:00:02.430Z,52.62532426254541
2023-03-23T04:15:06.340Z,51.853429214879625
2023-03-23T04:30:02.517Z,51.67785491699721
2023-03-23T04:45:02.224Z,51.57142319950425
2023-03-23T05:00:02.043Z,52.635318998808835
2023-03-23T05:15:01.708Z,54.090405077601574
2023-03-23T05:30:02.378Z,54.226003861867405
2023-03-23T05:45:02.029Z,53.842079942812546
2023-03-23T06:00:01.651Z,53.65434867643879
2023-03-23T06:15:02.262Z,53.319907458264375
2023-03-23T06:30:01.977Z,51.98419719854664
2023-03-23T06:45:01.645Z,51.114657862473415
2023-03-23T07:00:02.244Z,49.301585227396885
2023-03-23T07:15:01.861Z,47.955663411674884
2023-03-23T07:30:01.532Z,47.55329961848846
2023-03-23T07:45:02.136Z,45.564720753722035
2023-03-23T08:00:01.754Z,46.078358690680574
2023-03-23T08:15:01.360Z,47.32314482905989
2023-03-23T08:30:02.049Z,46.378910206539274
2023-03-23T08:45:01.713Z,46.832369511152805
2023-03-23T09:00:02.304Z,44.6963717455227
2023-03-23T09:15:01.927Z,46.53248238035105
2023-03-23T09:30:01.592Z,45.86519366362587
2023-03-23T09:45:02.198Z,45.487296093621914
2023-03-23T10:00:01.802Z,51.862893847481885
2023-03-23T10:15:01.435Z,52.5572279164017
2023-03-23T10:30:02.061Z,52.85660336293085
2023-03-23T10:45:01.671Z,51.21689654511924
2023-03-23T11:00:01.285Z,50.876298715692194
2023-03-23T11:15:02.027Z,51.23116834942684
2023-03-23T11:30:01.982Z,49.709746215134366
2023-03-23T11:45:01.621Z,51.14726423423095
2023-03-23T12:00:02.242Z,50.711764020583225
2023-03-23T12:15:01.896Z,38.96566202214792
2023-03-23T12:30:01.599Z,39.90855327496737
2023-03-23T12:45:02.234Z,39.989342313840766
2023-03-23T13:00:01.870Z,35.77743434114974
2023-03-23T13:15:02.488Z,32.987491666488694
2023-03-23T13:30:02.173Z,30.093884209961836
2023-03-23T13:45:01.873Z,31.85286158775011
2023-03-23T14:00:01.449Z,32.600660805078036
2023-03-23T14:15:02.137Z,31.760714574416884
2023-03-23T14:30:01.795Z,35.481782181940794
2023-03-23T14:45:02.428Z,33.36205607398541
2023-03-23T15:00:01.998Z,38.12275863888146
2023-03-23T15:15:01.689Z,40.521023201771385
2023-03-23T15:30:02.301Z,42.12471342877011
2023-03-23T15:45:01.950Z,47.72986859490821
2023-03-23T16:00:01.526Z,49.000239931542175
2023-03-23T16:15:02.216Z,47.70112844700044
2023-03-23T16:30:04.282Z,49.079502245931955
2023-03-23T16:45:02.249Z,50.984905275149835
2023-03-23T17:00:01.938Z,49.82532438429736
2023-03-23T17:15:01.573Z,50.9577197005476
2023-03-23T17:30:02.219Z,51.1711796167136
2023-03-23T17:45:01.896Z,53.31005339759039
2023-03-23T18:00:01.575Z,54.61578828055156
2023-03-23T18:15:02.200Z,54.43602762391879
2023-03-23T18:30:01.851Z,55.53357836848167
2023-03-23T18:45:01.524Z,55.90163979174382
2023-03-23T19:00:02.151Z,55.736432920489186
2023-03-23T19:15:01.845Z,54.98257429268634
2023-03-23T19:30:01.858Z,54.61432716627041
2023-03-23T19:45:03.401Z,54.93570330205106
2023-03-23T20:00:02.125Z,54.62719093178552
2023-03-23T20:15:01.811Z,54.33457432298948
2023-03-23T20:30:04.240Z,54.39325790797302
2023-03-23T20:45:02.077Z,53.88182329932774
2023-03-23T21:00:01.726Z,53.96512459856404
2023-03-23T21:15:02.364Z,53.97239373216867
2023-03-23T21:30:02.052Z,53.923503667743844
2023-03-23T21:45:01.695Z,53.56089213660895
2023-03-23T22:00:02.414Z,53.15481149237189
2023-03-23T22:15:02.071Z,53.52211905753154
2023-03-23T22:30:01.730Z,53.48601267901736
2023-03-23T22:45:02.381Z,53.00849371358408
2023-03-23T23:00:02.029Z,53.862374937282794
2023-03-23T23:15:01.780Z,54.71544804929743
2023-03-23T23:30:01.473Z,55.11853050722899
2023-03-23T23:45:02.148Z,56.20857568477633
